Rush City, Minnesota
Current Conditions -  °F | °C
As of 11:56 PM on Friday 19 Dec 2014 (Local Time) from KROS Reporting Station
Overcast Overcast  
Wind Chill: 21°   Ceiling: 1300
Heat Index: 28°   Visibility: 10mi
Dew Point: 24°   Wind: 6mph
Humidity: 88%   Direction: 160°SSE
Pressure: 30.16"   Gusts: NA
Location:  45.69°N, 92.97°W
Report Text: KROS 200556Z AUTO 16005KT 10SM OVC013 M02/M04 A3016 RMK AO2 T10251043 11025 21030 410251060
Loading
Personal Weather Stations






























Interactive Weather Map New forecast layout! Learn more

10-Day Weather Forecast

Advertisements
Track Severe Weather on mobile